| Date | Time | Temp. (oF) | Dew Point (oF) | Rel. Hum. (%) | Press. (in.) | Wind Dir. | Wind Speed (mph) | Hourly Rainfall (in.) |
|
|---|---|---|---|---|---|---|---|---|---|
| 1 | 01/14 | 00:00 | 33 | 15 | 49 | 30.67 | NW | 2 | 0.00 |
| 2 | 01/13 | 23:00 | 34 | 15 | 47 | 30.66 | NW | 5 | 0.00 |
| 3 | 01/13 | 22:00 | 35 | 17 | 48 | 30.65 | NW | 6 | 0.00 |
| 4 | 01/13 | 21:00 | 36 | 20 | 52 | 30.63 | NW | 8 | 0.00 |
| 5 | 01/13 | 20:00 | 37 | 22 | 56 | 30.62 | NW | 4 | 0.00 |
| 6 | 01/13 | 19:00 | 38 | 21 | 52 | 30.60 | NW | 4 | 0.00 |
| 7 | 01/13 | 18:00 | 39 | 21 | 49 | 30.58 | NW | 7 | 0.00 |
| 8 | 01/13 | 17:00 | 40 | 21 | 48 | 30.55 | NW | 11 | 0.00 |
| 9 | 01/13 | 16:00 | 42 | 23 | 48 | 30.53 | NW | 9 | 0.00 |
| 10 | 01/13 | 15:00 | 43 | 23 | 46 | 30.50 | NW | 6 | 0.00 |
| 11 | 01/13 | 14:00 | 43 | 24 | 47 | 30.48 | NW | 9 | 0.00 |
| 12 | 01/13 | 13:00 | 44 | 26 | 50 | 30.48 | NW | 12 | 0.00 |
| 13 | 01/13 | 12:00 | 43 | 27 | 54 | 30.49 | NW | 10 | 0.00 |
| 14 | 01/13 | 11:00 | 43 | 29 | 59 | 30.49 | S | 15 | 0.00 |
| 15 | 01/13 | 10:00 | 41 | 29 | 64 | 30.49 | S | 13 | 0.00 |
| 16 | 01/13 | 09:00 | 40 | 31 | 71 | 30.47 | S | 9 | 0.00 |
| 17 | 01/13 | 08:00 | 39 | 31 | 73 | 30.43 | S | 13 | 0.00 |
| 18 | 01/13 | 07:00 | 42 | 35 | 77 | 30.37 | S | 13 | 0.00 |
| 19 | 01/13 | 06:00 | 45 | 38 | 78 | 30.33 | S | 7 | 0.00 |
| 20 | 01/13 | 05:00 | 49 | 42 | 79 | 30.27 | S | 6 | 0.00 |
| 21 | 01/13 | 04:00 | 52 | 46 | 81 | 30.22 | S | 6 | 0.00 |
| 22 | 01/13 | 03:00 | 55 | 48 | 79 | 30.20 | S | 7 | 0.00 |
| 23 | 01/13 | 02:00 | 56 | 53 | 92 | 30.17 | S | 4 | 0.00 |
| 24 | 01/13 | 01:00 | 57 | 53 | 88 | 30.14 | S | 3 | 0.01 |